Time;durP1;ratioP1;P1;durP2;ratioP2;P2;SDS_P1;SDS_P2;PMS_P1;PMS_P2;Temp;Humidity;BMP_temperature;BMP_pressure;BME280_temperature;BME280_humidity;BME280_pressure;Samples;Min_cycle;Max_cycle;Signal;HPM_P1;HPM_P2
2021/11/25 00:01:04;;;;;;;13.05;7.82;;;1.50;99.90;;;;;;5001106;28;20037;-57
2021/11/25 00:03:30;;;;;;;17.13;8.15;;;1.50;99.90;;;;;;5000075;28;20034;-58
2021/11/25 00:05:56;;;;;;;11.68;7.25;;;1.40;99.90;;;;;;4999857;28;20489;-57
2021/11/25 00:08:22;;;;;;;11.13;7.00;;;1.50;99.90;;;;;;5001136;28;20480;-58
2021/11/25 00:10:47;;;;;;;12.55;7.28;;;1.50;99.90;;;;;;5005481;28;20025;-60
2021/11/25 00:13:13;;;;;;;15.38;6.72;;;1.50;99.90;;;;;;5004176;28;20080;-56
2021/11/25 00:15:40;;;;;;;12.50;6.82;;;1.50;99.90;;;;;;5002267;28;20625;-59
2021/11/25 00:18:06;;;;;;;15.02;7.78;;;1.50;99.90;;;;;;4997178;28;20042;-56
2021/11/25 00:20:32;;;;;;;13.10;7.90;;;1.40;99.90;;;;;;5004107;28;20030;-60
2021/11/25 00:22:58;;;;;;;15.82;9.48;;;1.40;99.90;;;;;;5003972;28;20042;-60
2021/11/25 00:25:25;;;;;;;15.23;7.80;;;1.30;99.90;;;;;;5000760;28;20022;-59
2021/11/25 00:27:51;;;;;;;14.10;7.65;;;1.40;99.90;;;;;;5012345;28;20021;-59
2021/11/25 00:30:17;;;;;;;15.00;8.68;;;1.40;99.90;;;;;;4989735;28;20042;-57
2021/11/25 00:32:43;;;;;;;15.88;8.38;;;1.30;99.90;;;;;;4995913;28;20089;-57
2021/11/25 00:35:11;;;;;;;18.13;7.97;;;1.40;99.90;;;;;;5001816;28;20048;-56
2021/11/25 00:37:37;;;;;;;14.65;8.10;;;1.30;99.90;;;;;;5003018;28;20041;-60
2021/11/25 00:40:08;;;;;;;13.02;8.13;;;1.30;99.90;;;;;;4996760;28;20037;-54
2021/11/25 00:42:34;;;;;;;14.75;8.35;;;1.30;99.90;;;;;;4996965;28;20173;-60
2021/11/25 00:45:01;;;;;;;16.75;8.55;;;1.30;99.90;;;;;;5005847;28;20108;-58
2021/11/25 00:47:26;;;;;;;13.70;8.10;;;1.20;99.90;;;;;;4996357;28;20517;-59
2021/11/25 00:49:52;;;;;;;13.60;9.30;;;1.10;99.90;;;;;;4994829;28;20101;-60
2021/11/25 00:52:18;;;;;;;14.88;8.82;;;1.10;99.90;;;;;;4999857;28;20089;-60
2021/11/25 00:54:43;;;;;;;15.48;9.00;;;1.00;99.90;;;;;;4998009;28;20033;-58
2021/11/25 00:57:09;;;;;;;16.30;8.95;;;1.00;99.90;;;;;;4995823;28;20031;-58
2021/11/25 00:59:35;;;;;;;16.00;9.73;;;0.90;99.90;;;;;;4996915;28;20459;-57
2021/11/25 01:02:00;;;;;;;15.90;8.75;;;0.80;99.90;;;;;;4995779;28;20030;-59
2021/11/25 01:04:26;;;;;;;16.23;9.57;;;0.70;99.90;;;;;;4995824;28;20162;-51
2021/11/25 01:06:52;;;;;;;16.73;9.52;;;0.70;99.90;;;;;;4994895;28;20515;-57
2021/11/25 01:09:17;;;;;;;16.27;9.43;;;0.60;99.90;;;;;;4994272;28;20475;-59
2021/11/25 01:11:44;;;;;;;15.73;9.43;;;0.70;99.90;;;;;;4998014;28;20038;-57
2021/11/25 01:14:12;;;;;;;16.42;9.65;;;0.70;99.90;;;;;;4997174;28;20563;-59
2021/11/25 01:16:43;;;;;;;18.52;9.98;;;0.80;99.90;;;;;;4996775;28;20029;-53
2021/11/25 01:19:09;;;;;;;17.17;9.15;;;1.00;99.90;;;;;;4991832;28;20032;-57
2021/11/25 01:21:35;;;;;;;16.77;9.07;;;1.10;99.90;;;;;;5002154;28;20022;-59
2021/11/25 01:24:00;;;;;;;14.07;8.77;;;1.20;99.90;;;;;;5009559;28;20080;-58
2021/11/25 01:26:26;;;;;;;19.17;9.88;;;1.20;99.90;;;;;;4991618;28;20454;-50
2021/11/25 01:28:52;;;;;;;14.93;8.65;;;1.30;99.90;;;;;;5004035;28;20021;-59
2021/11/25 01:31:17;;;;;;;17.65;9.55;;;1.40;99.90;;;;;;5002342;28;20029;-58
2021/11/25 01:33:43;;;;;;;16.27;8.40;;;1.40;99.90;;;;;;5005608;28;20053;-59
2021/11/25 01:36:09;;;;;;;13.98;8.30;;;1.40;99.90;;;;;;5008883;28;20112;-56
2021/11/25 01:38:34;;;;;;;17.65;10.55;;;1.40;99.90;;;;;;5007720;28;20377;-55
2021/11/25 01:41:00;;;;;;;13.18;7.88;;;1.40;99.90;;;;;;5011678;28;20041;-55
2021/11/25 01:43:27;;;;;;;22.17;8.73;;;1.50;99.90;;;;;;5004823;28;20092;-57
2021/11/25 01:45:55;;;;;;;12.63;7.57;;;1.50;99.90;;;;;;4999639;28;20077;-56
2021/11/25 01:48:22;;;;;;;12.45;7.78;;;1.50;99.90;;;;;;5010459;28;20391;-56
2021/11/25 01:50:49;;;;;;;12.88;8.90;;;1.50;99.90;;;;;;5000228;28;20068;-56
2021/11/25 01:53:15;;;;;;;15.70;8.45;;;1.50;99.90;;;;;;5000966;28;20821;-57
2021/11/25 01:55:41;;;;;;;17.48;9.15;;;1.50;99.90;;;;;;4995647;28;20498;-54
2021/11/25 01:58:07;;;;;;;14.88;8.55;;;1.50;99.90;;;;;;4993791;28;20043;-60
2021/11/25 02:00:40;;;;;;;13.90;7.65;;;1.50;99.90;;;;;;4998280;28;20068;-58
2021/11/25 02:03:07;;;;;;;15.55;8.40;;;1.50;99.90;;;;;;4997314;28;20057;-58
2021/11/25 02:05:33;;;;;;;18.10;8.45;;;1.50;99.90;;;;;;5018185;28;20084;-58
2021/11/25 02:07:59;;;;;;;15.57;8.77;;;1.50;99.90;;;;;;5012873;28;20026;-57
2021/11/25 02:10:25;;;;;;;16.90;8.98;;;1.50;99.90;;;;;;5004042;28;20110;-53
2021/11/25 02:12:51;;;;;;;18.60;8.40;;;1.60;99.90;;;;;;5001573;28;20026;-55
2021/11/25 02:15:17;;;;;;;13.00;8.38;;;1.60;99.90;;;;;;5000982;28;20543;-55
2021/11/25 02:17:43;;;;;;;15.88;8.10;;;1.60;99.90;;;;;;5001376;28;20029;-58
2021/11/25 02:20:10;;;;;;;13.40;8.38;;;1.60;99.90;;;;;;4995201;28;20042;-48
2021/11/25 02:22:38;;;;;;;12.45;8.00;;;1.60;99.90;;;;;;4992329;28;20038;-56
2021/11/25 02:25:05;;;;;;;14.00;8.80;;;1.60;99.90;;;;;;4992908;28;20065;-58
2021/11/25 02:27:31;;;;;;;14.88;9.02;;;1.60;99.90;;;;;;5001877;28;20023;-56
2021/11/25 02:29:57;;;;;;;13.48;7.93;;;1.60;99.90;;;;;;4996404;28;20053;-56
2021/11/25 02:32:29;;;;;;;16.73;9.88;;;1.70;99.90;;;;;;4999992;28;20022;-57
2021/11/25 02:34:54;;;;;;;18.52;8.40;;;1.70;99.90;;;;;;4992733;28;20029;-56
2021/11/25 02:37:20;;;;;;;14.48;8.48;;;1.70;99.90;;;;;;4998585;28;20399;-52
2021/11/25 02:39:47;;;;;;;14.93;8.75;;;1.80;99.90;;;;;;5008820;28;20025;-54
2021/11/25 02:42:13;;;;;;;17.92;9.23;;;1.90;99.90;;;;;;4995455;28;20026;-57
2021/11/25 02:44:38;;;;;;;16.10;9.30;;;1.90;99.90;;;;;;4998644;28;20037;-57
2021/11/25 02:47:04;;;;;;;14.95;9.48;;;2.00;99.90;;;;;;4995850;28;20146;-51
2021/11/25 02:49:30;;;;;;;12.80;8.93;;;2.00;99.90;;;;;;4996516;28;20041;-53
2021/11/25 02:51:55;;;;;;;14.77;9.02;;;2.00;99.90;;;;;;4993026;28;20026;-57
2021/11/25 02:54:21;;;;;;;12.93;8.00;;;2.00;99.90;;;;;;4993396;28;20041;-56
2021/11/25 02:56:46;;;;;;;11.55;7.15;;;2.10;99.90;;;;;;5003482;28;20060;-57
2021/11/25 02:59:12;;;;;;;12.68;7.70;;;2.10;99.90;;;;;;4990151;28;20038;-56
2021/11/25 03:01:38;;;;;;;12.43;8.27;;;2.20;99.90;;;;;;4994734;28;20456;-57
2021/11/25 03:04:05;;;;;;;12.27;7.45;;;2.10;99.90;;;;;;5000827;28;20450;-57
2021/11/25 03:06:31;;;;;;;13.13;7.95;;;2.10;99.90;;;;;;5013728;28;20049;-58
2021/11/25 03:08:58;;;;;;;11.82;7.88;;;2.10;99.90;;;;;;5008459;28;20033;-54
2021/11/25 03:11:26;;;;;;;15.75;8.70;;;2.00;99.90;;;;;;5008681;28;20038;-59
2021/11/25 03:13:55;;;;;;;13.05;8.20;;;2.00;99.90;;;;;;5016823;28;20103;-56
2021/11/25 03:16:22;;;;;;;12.13;8.10;;;1.90;99.90;;;;;;5009720;28;20084;-56
2021/11/25 03:18:49;;;;;;;13.15;8.10;;;1.90;99.90;;;;;;5013154;28;20037;-56
2021/11/25 03:21:16;;;;;;;14.00;8.65;;;1.90;99.90;;;;;;5015534;28;20037;-55
2021/11/25 03:23:44;;;;;;;15.20;8.68;;;1.90;99.90;;;;;;5010952;28;20116;-56
2021/11/25 03:26:11;;;;;;;12.70;7.93;;;1.90;99.90;;;;;;5018138;28;20395;-48
2021/11/25 03:28:43;;;;;;;15.45;8.23;;;1.90;99.90;;;;;;5021846;28;20025;-59
2021/11/25 03:31:16;;;;;;;14.13;8.70;;;1.90;99.90;;;;;;5022361;28;20079;-59
2021/11/25 03:33:42;;;;;;;21.27;11.23;;;1.90;99.90;;;;;;5012222;28;20022;-54
2021/11/25 03:36:10;;;;;;;18.85;10.48;;;2.00;99.90;;;;;;5017548;28;20045;-56
2021/11/25 03:38:36;;;;;;;14.45;9.07;;;1.90;99.90;;;;;;5019320;28;20132;-58
2021/11/25 03:41:06;;;;;;;13.85;8.80;;;2.00;99.90;;;;;;5021743;28;20095;-57
2021/11/25 03:43:32;;;;;;;13.10;8.40;;;1.90;99.90;;;;;;5020808;28;20499;-57
2021/11/25 03:45:58;;;;;;;13.25;8.00;;;1.90;99.90;;;;;;5007629;28;20026;-56
2021/11/25 03:48:28;;;;;;;13.57;7.80;;;1.90;99.90;;;;;;5010003;28;20054;-59
2021/11/25 03:50:55;;;;;;;12.40;8.35;;;2.00;99.90;;;;;;5003176;28;20032;-56
2021/11/25 03:53:21;;;;;;;12.77;8.25;;;2.00;99.90;;;;;;4977669;28;20033;-56
2021/11/25 03:55:46;;;;;;;15.75;8.75;;;2.00;99.90;;;;;;5003155;28;20036;-58
2021/11/25 03:58:12;;;;;;;13.52;8.23;;;2.10;99.90;;;;;;5007592;28;20451;-57
2021/11/25 04:00:38;;;;;;;16.25;7.88;;;2.00;99.90;;;;;;5003952;28;20112;-56
2021/11/25 04:03:04;;;;;;;13.95;9.15;;;1.90;99.90;;;;;;5004709;28;20385;-59
2021/11/25 04:05:30;;;;;;;18.23;9.15;;;1.90;99.90;;;;;;5014568;28;20037;-56
2021/11/25 04:07:56;;;;;;;13.85;9.15;;;1.90;99.90;;;;;;5007754;28;20511;-57
2021/11/25 04:10:22;;;;;;;15.60;9.18;;;1.90;99.90;;;;;;5014459;28;20022;-56
2021/11/25 04:12:47;;;;;;;18.48;9.63;;;2.00;99.90;;;;;;5008159;28;20053;-55
2021/11/25 04:15:15;;;;;;;17.65;9.27;;;2.00;99.90;;;;;;5002442;28;20104;-57
2021/11/25 04:17:40;;;;;;;14.57;8.63;;;2.00;99.90;;;;;;5018373;28;20048;-58
2021/11/25 04:20:08;;;;;;;13.68;9.05;;;2.00;99.90;;;;;;5006746;28;20035;-56
2021/11/25 04:22:33;;;;;;;18.45;10.05;;;2.00;99.90;;;;;;5010438;28;20041;-56
2021/11/25 04:24:59;;;;;;;17.23;9.70;;;2.00;99.90;;;;;;4999195;28;20123;-58
2021/11/25 04:27:26;;;;;;;16.80;8.98;;;2.00;99.90;;;;;;5002683;28;20447;-58
2021/11/25 04:30:06;;;;;;;14.65;9.00;;;2.00;99.90;;;;;;5004421;28;20029;-56
2021/11/25 04:35:34;;;;;;;18.13;10.40;;;2.00;99.90;;;;;;5002472;28;20040;-57
2021/11/25 04:38:18;;;;;;;15.20;9.75;;;2.00;99.90;;;;;;4994259;28;20041;-55
2021/11/25 04:41:02;;;;;;;18.60;11.37;;;2.00;99.90;;;;;;4999246;28;20500;-57
2021/11/25 04:43:29;;;;;;;17.98;10.20;;;2.00;99.90;;;;;;5006975;28;20289;-56
2021/11/25 04:45:56;;;;;;;22.35;10.63;;;2.00;99.90;;;;;;5006579;28;20036;-58
2021/11/25 04:48:24;;;;;;;18.00;10.23;;;2.00;99.90;;;;;;5016655;28;20021;-55
2021/11/25 04:50:50;;;;;;;15.52;9.73;;;2.00;99.90;;;;;;5010622;28;20022;-59
2021/11/25 04:53:17;;;;;;;17.85;10.32;;;2.10;99.90;;;;;;4999506;28;20057;-57
2021/11/25 04:55:43;;;;;;;16.92;9.50;;;2.10;99.90;;;;;;5001529;28;20391;-57
2021/11/25 04:58:09;;;;;;;17.50;9.48;;;2.10;99.90;;;;;;5010911;28;20041;-49
2021/11/25 05:00:36;;;;;;;14.48;8.68;;;2.10;99.90;;;;;;5021115;28;20085;-57
2021/11/25 05:03:02;;;;;;;13.98;9.43;;;2.10;99.90;;;;;;5007549;28;20026;-56
2021/11/25 05:05:28;;;;;;;14.98;9.05;;;2.10;99.90;;;;;;5003159;28;20026;-58
2021/11/25 05:07:54;;;;;;;14.45;8.90;;;2.10;99.90;;;;;;5009814;28;20048;-58
2021/11/25 05:10:20;;;;;;;14.88;9.38;;;2.10;99.90;;;;;;5013595;28;20022;-57
2021/11/25 05:12:46;;;;;;;16.70;9.95;;;2.20;99.90;;;;;;5003144;28;20064;-53
2021/11/25 05:15:14;;;;;;;17.45;10.20;;;2.20;99.90;;;;;;5000474;28;20037;-57
2021/11/25 05:17:41;;;;;;;16.25;10.30;;;2.20;99.90;;;;;;5007564;28;20033;-55
2021/11/25 05:20:10;;;;;;;14.43;9.77;;;2.20;99.90;;;;;;5008499;28;20501;-58
2021/11/25 05:22:36;;;;;;;15.90;10.90;;;2.20;99.90;;;;;;5001549;28;20060;-57
2021/11/25 05:25:03;;;;;;;14.77;9.15;;;2.30;99.90;;;;;;5000563;28;20417;-57
2021/11/25 05:27:28;;;;;;;14.65;9.20;;;2.30;99.90;;;;;;5009482;28;20053;-54
2021/11/25 05:29:54;;;;;;;13.60;8.77;;;2.30;99.90;;;;;;5009028;28;20482;-58
2021/11/25 05:32:20;;;;;;;16.15;8.55;;;2.20;99.90;;;;;;5015355;28;20040;-57
2021/11/25 05:34:46;;;;;;;16.67;8.85;;;2.20;99.90;;;;;;5003353;28;20083;-53
2021/11/25 05:37:13;;;;;;;16.27;9.52;;;2.20;99.90;;;;;;5005875;28;20041;-56
2021/11/25 05:39:39;;;;;;;17.17;10.15;;;2.20;99.90;;;;;;5002353;28;20022;-56
2021/11/25 05:42:05;;;;;;;15.32;10.48;;;2.10;99.90;;;;;;5004701;28;20025;-56
2021/11/25 05:44:30;;;;;;;18.25;10.68;;;2.10;99.90;;;;;;5005359;28;20025;-55
2021/11/25 05:46:56;;;;;;;17.35;10.63;;;2.10;99.90;;;;;;5000623;28;20026;-56
2021/11/25 05:49:22;;;;;;;19.80;10.50;;;2.10;99.90;;;;;;5006347;28;20034;-58
2021/11/25 05:51:47;;;;;;;23.98;12.35;;;2.20;99.90;;;;;;5001464;28;20088;-57
2021/11/25 05:54:13;;;;;;;17.80;11.43;;;2.20;99.90;;;;;;5006940;28;20033;-55
2021/11/25 05:56:39;;;;;;;14.68;10.35;;;2.20;99.90;;;;;;5003971;28;20033;-57
2021/11/25 05:59:04;;;;;;;15.02;9.65;;;2.20;99.90;;;;;;5007539;28;20034;-57
2021/11/25 06:01:30;;;;;;;18.90;11.93;;;2.20;99.90;;;;;;5002645;28;20018;-57
2021/11/25 06:03:56;;;;;;;19.13;11.07;;;2.20;99.90;;;;;;4998932;28;20088;-60
2021/11/25 06:06:22;;;;;;;17.10;10.18;;;2.20;99.90;;;;;;5003033;28;20033;-57
2021/11/25 06:08:49;;;;;;;16.23;9.82;;;2.20;99.90;;;;;;5005744;28;20030;-57
2021/11/25 06:11:15;;;;;;;24.52;12.65;;;2.20;99.90;;;;;;5008879;28;20396;-53
2021/11/25 06:13:41;;;;;;;21.65;13.15;;;2.20;99.90;;;;;;5020044;28;20403;-56
2021/11/25 06:16:07;;;;;;;17.60;10.77;;;2.20;99.90;;;;;;5001371;28;20044;-58
2021/11/25 06:18:33;;;;;;;19.63;9.88;;;2.20;99.90;;;;;;5015216;28;20122;-56
2021/11/25 06:20:59;;;;;;;15.77;10.65;;;2.20;99.90;;;;;;5017392;28;20038;-56
2021/11/25 06:23:24;;;;;;;17.33;10.40;;;2.20;99.90;;;;;;5005996;28;20518;-59
2021/11/25 06:25:51;;;;;;;16.85;10.20;;;2.20;99.90;;;;;;5017166;28;20041;-55
2021/11/25 06:28:18;;;;;;;17.85;10.02;;;2.20;99.90;;;;;;5013354;28;20045;-58
2021/11/25 06:30:44;;;;;;;15.57;9.75;;;2.20;99.90;;;;;;5005682;28;20033;-57
2021/11/25 06:33:10;;;;;;;16.55;11.10;;;2.20;99.90;;;;;;5001164;28;20053;-59
2021/11/25 06:35:36;;;;;;;19.17;11.30;;;2.20;99.90;;;;;;5010953;28;20044;-57
2021/11/25 06:38:02;;;;;;;19.60;11.30;;;2.30;99.90;;;;;;5012210;28;20040;-54
2021/11/25 06:40:31;;;;;;;16.63;11.70;;;2.30;99.90;;;;;;5003139;28;20037;-57
2021/11/25 06:42:59;;;;;;;16.77;10.85;;;2.30;99.90;;;;;;4997092;28;20045;-59
2021/11/25 06:45:26;;;;;;;17.70;10.63;;;2.40;99.90;;;;;;5001424;28;20484;-57
2021/11/25 06:47:52;;;;;;;32.65;14.10;;;2.30;99.90;;;;;;5005255;28;20049;-59
2021/11/25 06:50:20;;;;;;;17.70;10.27;;;2.30;99.90;;;;;;4998975;28;20039;-58
2021/11/25 06:52:46;;;;;;;29.90;10.55;;;2.30;99.90;;;;;;5008587;28;20033;-56
2021/11/25 06:55:13;;;;;;;16.77;9.15;;;2.30;99.90;;;;;;5008049;28;20384;-57
2021/11/25 06:57:39;;;;;;;15.40;9.80;;;2.30;99.90;;;;;;5006359;28;20029;-56
2021/11/25 07:00:08;;;;;;;13.07;8.60;;;2.30;99.90;;;;;;4998499;28;20060;-57
2021/11/25 07:02:34;;;;;;;17.70;10.48;;;2.30;99.90;;;;;;5003519;28;20049;-55
2021/11/25 07:05:02;;;;;;;19.33;10.88;;;2.30;99.90;;;;;;4999841;28;20037;-58
2021/11/25 07:07:28;;;;;;;17.60;10.90;;;2.30;99.90;;;;;;4986467;28;20156;-53
2021/11/25 07:09:53;;;;;;;16.77;10.93;;;2.30;99.90;;;;;;5002177;28;20197;-54
2021/11/25 07:12:19;;;;;;;19.58;11.13;;;2.30;99.90;;;;;;5006684;28;20045;-57
2021/11/25 07:14:44;;;;;;;21.40;11.18;;;2.30;99.90;;;;;;5005489;28;20112;-55
2021/11/25 07:17:10;;;;;;;16.58;9.30;;;2.30;99.90;;;;;;5004767;28;20038;-57
2021/11/25 07:19:36;;;;;;;15.60;9.70;;;2.40;99.90;;;;;;5001521;28;20410;-57
2021/11/25 07:22:01;;;;;;;17.35;9.77;;;2.30;99.90;;;;;;5006087;28;20120;-59
2021/11/25 07:24:27;;;;;;;25.30;12.05;;;2.30;99.90;;;;;;4999783;28;20033;-59
2021/11/25 07:26:52;;;;;;;17.85;10.13;;;2.30;99.90;;;;;;5007000;28;20479;-61
2021/11/25 07:29:18;;;;;;;17.77;11.32;;;2.30;99.90;;;;;;5002856;28;20041;-53
2021/11/25 07:31:46;;;;;;;19.60;10.98;;;2.30;99.90;;;;;;4987160;28;20054;-58
2021/11/25 07:34:12;;;;;;;14.80;10.15;;;2.30;99.90;;;;;;5000723;28;20033;-55
2021/11/25 07:36:38;;;;;;;26.75;13.18;;;2.30;99.90;;;;;;5004567;28;20096;-57
2021/11/25 07:39:04;;;;;;;30.13;15.23;;;2.40;99.90;;;;;;5004825;28;20038;-59
2021/11/25 07:41:31;;;;;;;24.30;14.45;;;2.40;99.90;;;;;;4994079;28;20030;-57
2021/11/25 07:43:57;;;;;;;26.15;13.10;;;2.40;99.90;;;;;;4999864;28;20034;-57
2021/11/25 07:46:22;;;;;;;29.52;17.67;;;2.40;99.90;;;;;;5004282;28;20045;-56
2021/11/25 07:48:48;;;;;;;29.55;17.00;;;2.50;99.90;;;;;;5001755;28;20035;-57
2021/11/25 07:51:14;;;;;;;17.92;11.27;;;2.50;99.90;;;;;;4998191;28;20102;-58
2021/11/25 07:53:39;;;;;;;16.27;9.13;;;2.60;99.90;;;;;;4993371;28;20407;-59
2021/11/25 07:56:05;;;;;;;15.45;9.40;;;2.60;99.90;;;;;;5000205;28;20034;-57
2021/11/25 07:58:31;;;;;;;16.02;9.70;;;2.60;99.90;;;;;;4997538;28;20034;-57
2021/11/25 08:00:56;;;;;;;15.27;8.98;;;2.60;99.90;;;;;;4950764;28;20069;-56
2021/11/25 08:03:23;;;;;;;16.52;9.55;;;2.60;99.90;;;;;;5000567;28;20149;-56
2021/11/25 08:05:49;;;;;;;24.45;13.35;;;2.60;99.90;;;;;;5009548;28;20025;-56
2021/11/25 08:08:14;;;;;;;23.98;14.02;;;2.50;99.90;;;;;;5006069;28;20597;-58
2021/11/25 08:10:41;;;;;;;24.42;13.43;;;2.50;99.90;;;;;;5004777;28;20037;-59
2021/11/25 08:13:07;;;;;;;18.80;10.65;;;2.50;99.90;;;;;;5001460;28;20022;-57
2021/11/25 08:15:34;;;;;;;16.50;9.90;;;2.30;99.90;;;;;;5011219;28;20101;-57
2021/11/25 08:18:00;;;;;;;23.10;13.55;;;2.20;99.90;;;;;;5018669;28;20044;-57
2021/11/25 08:20:26;;;;;;;34.72;17.13;;;2.20;99.90;;;;;;5007450;28;20046;-58
2021/11/25 08:22:52;;;;;;;29.15;16.73;;;2.10;99.90;;;;;;4999295;28;20030;-57
2021/11/25 08:25:20;;;;;;;28.77;15.90;;;2.00;99.90;;;;;;4999967;28;20150;-56
2021/11/25 08:27:47;;;;;;;37.25;19.92;;;2.10;99.90;;;;;;5003017;28;20060;-57
2021/11/25 08:30:13;;;;;;;35.13;19.40;;;2.10;99.90;;;;;;5021866;28;20045;-56
2021/11/25 08:32:40;;;;;;;31.13;16.88;;;2.10;99.90;;;;;;4993200;28;20049;-55
2021/11/25 08:35:06;;;;;;;21.98;14.63;;;2.10;99.90;;;;;;5012738;28;20033;-59
2021/11/25 08:37:33;;;;;;;28.52;15.20;;;2.10;99.90;;;;;;5005214;28;20167;-60
2021/11/25 08:39:59;;;;;;;42.33;26.17;;;2.20;99.90;;;;;;5008794;28;20052;-57
2021/11/25 08:42:25;;;;;;;56.72;30.17;;;2.30;99.90;;;;;;4998549;28;20041;-57
2021/11/25 08:44:51;;;;;;;61.00;35.65;;;2.30;99.90;;;;;;5004042;28;20089;-56
2021/11/25 08:47:16;;;;;;;56.22;34.05;;;2.40;99.90;;;;;;5003293;28;20058;-56
2021/11/25 08:49:42;;;;;;;43.85;26.45;;;2.60;99.90;;;;;;5005795;28;20484;-59
2021/11/25 08:52:08;;;;;;;25.73;16.25;;;2.80;99.90;;;;;;5007021;28;20040;-59
2021/11/25 08:54:34;;;;;;;30.85;17.45;;;2.90;99.90;;;;;;5013826;28;20066;-59
2021/11/25 08:56:59;;;;;;;72.13;39.67;;;3.10;99.90;;;;;;5000518;28;20127;-59
2021/11/25 08:59:25;;;;;;;65.95;38.90;;;3.20;99.90;;;;;;5005593;28;20109;-59
2021/11/25 09:01:51;;;;;;;29.73;17.27;;;3.30;99.90;;;;;;5006255;28;20034;-59
2021/11/25 09:04:17;;;;;;;24.65;15.00;;;3.30;99.90;;;;;;5010040;28;20104;-57
2021/11/25 09:06:43;;;;;;;23.00;11.85;;;3.40;99.90;;;;;;5000889;28;20121;-57
2021/11/25 09:09:09;;;;;;;20.13;10.75;;;3.40;99.90;;;;;;5006025;28;20023;-57
2021/11/25 09:11:36;;;;;;;20.83;9.85;;;3.40;99.90;;;;;;5001274;28;20782;-57
2021/11/25 09:14:02;;;;;;;19.02;10.80;;;3.40;99.90;;;;;;5006787;28;20042;-57
2021/11/25 09:16:28;;;;;;;19.25;11.23;;;3.30;99.90;;;;;;4998409;28;20133;-55
2021/11/25 09:18:53;;;;;;;16.45;10.05;;;3.30;99.90;;;;;;4996682;28;20110;-58
2021/11/25 09:21:21;;;;;;;18.95;11.00;;;3.30;99.90;;;;;;4994384;28;20054;-57
2021/11/25 09:23:48;;;;;;;55.28;14.57;;;3.20;99.90;;;;;;4993969;28;20094;-57
2021/11/25 09:26:13;;;;;;;18.15;10.85;;;3.20;99.90;;;;;;5016214;28;20030;-55
2021/11/25 09:28:39;;;;;;;16.95;9.95;;;3.10;99.90;;;;;;5001813;28;20041;-58
2021/11/25 09:31:06;;;;;;;18.90;9.80;;;3.10;99.90;;;;;;5011942;28;20108;-60
2021/11/25 09:33:32;;;;;;;20.98;11.57;;;3.30;99.90;;;;;;4993063;28;20072;-58
2021/11/25 09:35:58;;;;;;;67.95;39.42;;;3.40;99.90;;;;;;4994477;28;20713;-57
2021/11/25 09:38:23;;;;;;;22.77;15.55;;;3.50;99.90;;;;;;4997372;28;21502;-57
2021/11/25 09:40:49;;;;;;;14.50;9.65;;;3.80;99.90;;;;;;4999814;28;20026;-57
2021/11/25 09:43:21;;;;;;;17.75;11.02;;;3.80;99.90;;;;;;5005902;28;20450;-59
2021/11/25 09:45:50;;;;;;;16.73;10.45;;;3.90;99.90;;;;;;5002097;28;20677;-59
2021/11/25 09:48:17;;;;;;;16.33;10.13;;;3.90;99.90;;;;;;5009462;28;20510;-59
2021/11/25 09:50:44;;;;;;;15.45;10.05;;;3.80;99.90;;;;;;4996330;28;20049;-57
2021/11/25 09:53:13;;;;;;;19.83;11.45;;;3.70;99.90;;;;;;4999419;28;20062;-59
2021/11/25 09:55:42;;;;;;;17.95;11.30;;;3.70;99.90;;;;;;5001005;28;20116;-57
2021/11/25 09:58:12;;;;;;;24.83;14.10;;;3.70;99.90;;;;;;5003572;28;20049;-59
2021/11/25 10:00:49;;;;;;;24.88;12.98;;;3.70;99.90;;;;;;5006776;28;20486;-59
2021/11/25 10:03:16;;;;;;;24.67;14.95;;;3.80;99.90;;;;;;4999247;28;20129;-57
2021/11/25 10:05:51;;;;;;;29.38;18.13;;;3.80;99.90;;;;;;5001704;28;20026;-59
2021/11/25 10:08:26;;;;;;;24.00;14.73;;;3.80;99.90;;;;;;5002950;28;20052;-58
2021/11/25 10:11:08;;;;;;;23.40;14.90;;;3.90;99.90;;;;;;4995720;28;20109;-56
2021/11/25 10:13:40;;;;;;;30.27;16.85;;;3.90;99.90;;;;;;5010365;28;20041;-57
2021/11/25 10:16:08;;;;;;;30.58;17.27;;;3.90;99.90;;;;;;5003820;28;20515;-56
2021/11/25 10:18:35;;;;;;;23.45;13.75;;;4.00;99.90;;;;;;5017787;28;20041;-58
2021/11/25 10:21:05;;;;;;;21.75;14.55;;;4.00;99.90;;;;;;5017329;28;20117;-58
2021/11/25 10:23:31;;;;;;;31.42;17.67;;;4.10;99.90;;;;;;5004709;28;20420;-56
2021/11/25 10:26:00;;;;;;;24.05;15.68;;;4.20;99.90;;;;;;5004223;28;20249;-57
2021/11/25 10:28:35;;;;;;;24.90;14.95;;;4.20;99.90;;;;;;5009798;28;20026;-58
2021/11/25 10:31:06;;;;;;;23.23;13.65;;;4.30;99.90;;;;;;5012811;28;20123;-58
2021/11/25 10:33:52;;;;;;;22.00;13.50;;;4.40;99.90;;;;;;4995196;28;20045;-56
2021/11/25 10:36:34;;;;;;;22.13;12.93;;;4.50;99.90;;;;;;5019348;28;20040;-57
2021/11/25 10:39:27;;;;;;;26.98;16.13;;;4.70;99.90;;;;;;5009453;28;20033;-56
2021/11/25 10:42:00;;;;;;;21.50;13.23;;;4.90;99.90;;;;;;4996005;28;20066;-56
2021/11/25 10:44:30;;;;;;;22.58;14.18;;;5.10;99.90;;;;;;5010692;28;20378;-58
2021/11/25 10:47:11;;;;;;;24.52;13.93;;;5.50;99.90;;;;;;5000034;28;20033;-57
2021/11/25 10:50:00;;;;;;;29.98;15.00;;;5.60;99.90;;;;;;5006246;28;20611;-57
2021/11/25 10:52:30;;;;;;;25.38;13.48;;;5.70;99.90;;;;;;5010126;28;20034;-57
2021/11/25 10:55:03;;;;;;;22.02;12.55;;;6.00;99.90;;;;;;5004547;28;20037;-57
2021/11/25 10:57:46;;;;;;;19.48;13.38;;;6.00;99.90;;;;;;5012780;28;20029;-55
2021/11/25 11:00:24;;;;;;;33.92;17.25;;;5.90;99.90;;;;;;5001915;28;20499;-52
2021/11/25 11:03:07;;;;;;;73.00;32.67;;;5.70;99.90;;;;;;5003464;28;20439;-58
2021/11/25 11:06:01;;;;;;;24.83;15.02;;;5.70;99.90;;;;;;5019237;28;20022;-55
2021/11/25 11:08:31;;;;;;;25.95;15.50;;;5.60;99.90;;;;;;4999753;28;20160;-55
2021/11/25 11:10:56;;;;;;;81.20;33.30;;;5.50;99.90;;;;;;5005460;28;20038;-56
2021/11/25 11:16:23;;;;;;;23.20;15.60;;;5.40;99.90;;;;;;5006890;28;20387;-55
2021/11/25 11:18:57;;;;;;;24.02;13.68;;;5.30;99.90;;;;;;5011709;28;20037;-55
2021/11/25 11:21:33;;;;;;;;;;;5.30;99.90;;;;;;5006516;28;20022;-56
2021/11/25 11:24:19;;;;;;;20.95;13.07;;;5.20;99.90;;;;;;5004922;28;19921;-57
2021/11/25 11:26:50;;;;;;;20.27;11.82;;;5.10;99.90;;;;;;5008925;28;20018;-59
2021/11/25 11:29:22;;;;;;;37.88;20.35;;;5.00;99.90;;;;;;5003315;28;20329;-55
2021/11/25 11:31:51;;;;;;;34.03;17.50;;;5.10;99.90;;;;;;4986023;28;20026;-59
2021/11/25 11:34:18;;;;;;;21.30;13.57;;;5.20;99.90;;;;;;5010989;28;20053;-56
2021/11/25 11:36:47;;;;;;;21.02;11.80;;;5.30;99.90;;;;;;5011539;28;20033;-55
2021/11/25 11:39:15;;;;;;;21.52;11.88;;;5.30;99.90;;;;;;5000857;28;20040;-57
2021/11/25 11:41:44;;;;;;;20.10;11.25;;;5.30;99.90;;;;;;5016718;28;20542;-56
2021/11/25 11:44:10;;;;;;;23.45;12.45;;;5.40;99.90;;;;;;5004009;28;20125;-57
2021/11/25 11:46:37;;;;;;;23.85;14.73;;;5.50;99.90;;;;;;5006409;28;20165;-58
2021/11/25 11:49:04;;;;;;;29.83;16.80;;;5.50;99.90;;;;;;5002840;28;20594;-58
2021/11/25 11:51:32;;;;;;;28.73;18.23;;;5.50;99.90;;;;;;5006453;28;20028;-57
2021/11/25 11:53:58;;;;;;;39.22;20.27;;;5.60;99.90;;;;;;5005821;28;20029;-56
2021/11/25 11:56:40;;;;;;;29.75;17.77;;;5.60;99.90;;;;;;5003827;28;20066;-58
2021/11/25 11:59:07;;;;;;;37.42;21.13;;;5.70;99.90;;;;;;5009841;28;20045;-57
2021/11/25 12:01:33;;;;;;;35.13;22.40;;;5.60;99.90;;;;;;5009420;28;20034;-56
2021/11/25 12:04:13;;;;;;;35.63;22.02;;;5.60;99.90;;;;;;5013110;28;20036;-55
2021/11/25 12:06:40;;;;;;;36.92;21.88;;;5.40;99.90;;;;;;5010571;28;20021;-56
2021/11/25 12:09:21;;;;;;;31.23;20.13;;;5.30;99.90;;;;;;5003232;28;20053;-57
2021/11/25 12:11:50;;;;;;;30.95;18.98;;;5.30;99.90;;;;;;5005121;28;20045;-56
2021/11/25 12:14:18;;;;;;;39.88;20.58;;;5.30;99.90;;;;;;5003690;28;20399;-52
2021/11/25 12:17:06;;;;;;;32.97;19.60;;;5.20;99.90;;;;;;5004946;28;20041;-55
2021/11/25 12:19:39;;;;;;;34.17;20.25;;;5.30;99.90;;;;;;5022562;28;20454;-59
2021/11/25 12:22:14;;;;;;;33.85;18.45;;;5.50;99.90;;;;;;5011463;28;20039;-57
2021/11/25 12:24:48;;;;;;;31.10;19.65;;;5.40;99.90;;;;;;5007151;28;20061;-55
2021/11/25 12:27:23;;;;;;;34.17;20.33;;;5.40;99.90;;;;;;5007710;28;20072;-57
2021/11/25 12:30:04;;;;;;;35.10;21.08;;;5.50;99.90;;;;;;5016154;28;20029;-56
2021/11/25 12:32:36;;;;;;;38.53;21.70;;;5.60;99.90;;;;;;5008537;28;20030;-57
2021/11/25 12:35:11;;;;;;;33.92;20.90;;;5.70;99.90;;;;;;5025837;28;20025;-56
2021/11/25 12:37:46;;;;;;;31.90;19.70;;;5.60;99.90;;;;;;5018769;28;20041;-55
2021/11/25 12:40:14;;;;;;;32.90;20.20;;;5.70;99.90;;;;;;5016325;28;20247;-59
2021/11/25 12:42:46;;;;;;;33.80;21.92;;;5.80;99.90;;;;;;5025458;28;20097;-57
2021/11/25 12:45:28;;;;;;;39.55;21.85;;;5.80;99.90;;;;;;5008199;28;20025;-58
2021/11/25 12:48:09;;;;;;;29.85;19.13;;;5.70;99.90;;;;;;5005358;28;20025;-57
2021/11/25 12:50:43;;;;;;;35.78;20.42;;;5.50;99.90;;;;;;5022163;28;20044;-57
2021/11/25 12:53:10;;;;;;;;;;;5.40;99.90;;;;;;5013537;28;20041;-56